sensor_id;sensor_type;location;lat;lon;timestamp;temperature;humidity
19680;DHT22;9989;48.962;9.182;2022-12-18T00:01:31;-5.10;99.90
19680;DHT22;9989;48.962;9.182;2022-12-18T00:03:57;-5.20;99.90
19680;DHT22;9989;48.962;9.182;2022-12-18T00:06:25;-5.30;99.90
19680;DHT22;9989;48.962;9.182;2022-12-18T00:08:51;-5.40;99.90
19680;DHT22;9989;48.962;9.182;2022-12-18T00:11:19;-5.40;99.90
19680;DHT22;9989;48.962;9.182;2022-12-18T00:13:45;-5.50;99.90
19680;DHT22;9989;48.962;9.182;2022-12-18T00:16:14;-5.50;99.90
19680;DHT22;9989;48.962;9.182;2022-12-18T00:18:40;-5.50;99.90
19680;DHT22;9989;48.962;9.182;2022-12-18T00:21:07;-5.50;99.90
19680;DHT22;9989;48.962;9.182;2022-12-18T00:23:34;-5.40;99.90
19680;DHT22;9989;48.962;9.182;2022-12-18T00:26:01;-5.40;99.90
19680;DHT22;9989;48.962;9.182;2022-12-18T00:28:27;-5.50;99.90
19680;DHT22;9989;48.962;9.182;2022-12-18T00:31:02;-5.50;99.90
19680;DHT22;9989;48.962;9.182;2022-12-18T00:33:28;-5.50;99.90
19680;DHT22;9989;48.962;9.182;2022-12-18T00:35:54;-5.50;99.90
19680;DHT22;9989;48.962;9.182;2022-12-18T00:38:19;-5.50;99.90
19680;DHT22;9989;48.962;9.182;2022-12-18T00:40:45;-5.60;99.90
19680;DHT22;9989;48.962;9.182;2022-12-18T00:43:10;-5.50;99.90
19680;DHT22;9989;48.962;9.182;2022-12-18T00:45:36;-5.60;99.90
19680;DHT22;9989;48.962;9.182;2022-12-18T00:48:02;-5.60;99.90
19680;DHT22;9989;48.962;9.182;2022-12-18T00:50:28;-5.70;99.90
19680;DHT22;9989;48.962;9.182;2022-12-18T00:52:53;-5.70;99.90
19680;DHT22;9989;48.962;9.182;2022-12-18T00:55:19;-5.70;99.90
19680;DHT22;9989;48.962;9.182;2022-12-18T00:57:44;-5.70;99.90
19680;DHT22;9989;48.962;9.182;2022-12-18T01:00:13;-5.70;99.90
19680;DHT22;9989;48.962;9.182;2022-12-18T01:02:39;-5.80;99.90
19680;DHT22;9989;48.962;9.182;2022-12-18T01:05:06;-5.80;99.90
19680;DHT22;9989;48.962;9.182;2022-12-18T01:07:31;-5.80;99.90
19680;DHT22;9989;48.962;9.182;2022-12-18T01:09:57;-5.70;99.90
19680;DHT22;9989;48.962;9.182;2022-12-18T01:12:23;-5.70;99.90
19680;DHT22;9989;48.962;9.182;2022-12-18T01:14:48;-5.70;99.90
19680;DHT22;9989;48.962;9.182;2022-12-18T01:17:14;-5.70;99.90
19680;DHT22;9989;48.962;9.182;2022-12-18T01:19:40;-5.80;99.90
19680;DHT22;9989;48.962;9.182;2022-12-18T01:22:05;-5.80;99.90
19680;DHT22;9989;48.962;9.182;2022-12-18T01:24:31;-5.80;99.90
19680;DHT22;9989;48.962;9.182;2022-12-18T01:26:57;-5.80;99.90
19680;DHT22;9989;48.962;9.182;2022-12-18T01:29:22;-5.80;99.90
19680;DHT22;9989;48.962;9.182;2022-12-18T01:31:48;-5.80;99.90
19680;DHT22;9989;48.962;9.182;2022-12-18T01:34:14;-5.80;99.90
19680;DHT22;9989;48.962;9.182;2022-12-18T01:36:40;-5.70;99.90
19680;DHT22;9989;48.962;9.182;2022-12-18T01:39:10;-5.60;99.90
19680;DHT22;9989;48.962;9.182;2022-12-18T01:41:36;-5.70;99.90
19680;DHT22;9989;48.962;9.182;2022-12-18T01:50:03;-5.70;99.90
19680;DHT22;9989;48.962;9.182;2022-12-18T01:52:31;-5.80;99.90
19680;DHT22;9989;48.962;9.182;2022-12-18T01:54:59;-5.80;99.90
19680;DHT22;9989;48.962;9.182;2022-12-18T01:57:26;-5.80;99.90
19680;DHT22;9989;48.962;9.182;2022-12-18T01:59:54;-5.80;99.90
19680;DHT22;9989;48.962;9.182;2022-12-18T02:02:22;-5.70;99.90
19680;DHT22;9989;48.962;9.182;2022-12-18T02:04:47;-5.70;99.90
19680;DHT22;9989;48.962;9.182;2022-12-18T02:10:13;-5.70;99.90
19680;DHT22;9989;48.962;9.182;2022-12-18T02:12:45;-5.70;99.90
19680;DHT22;9989;48.962;9.182;2022-12-18T02:17:54;-5.70;99.90
19680;DHT22;9989;48.962;9.182;2022-12-18T02:28:30;-5.70;99.90
19680;DHT22;9989;48.962;9.182;2022-12-18T02:30:59;-5.70;99.90
19680;DHT22;9989;48.962;9.182;2022-12-18T02:33:28;-5.70;99.90
19680;DHT22;9989;48.962;9.182;2022-12-18T02:35:56;-5.70;99.90
19680;DHT22;9989;48.962;9.182;2022-12-18T02:38:23;-5.60;99.90
19680;DHT22;9989;48.962;9.182;2022-12-18T02:40:51;-5.60;99.90
19680;DHT22;9989;48.962;9.182;2022-12-18T02:43:18;-5.60;99.90
19680;DHT22;9989;48.962;9.182;2022-12-18T02:45:54;-5.50;99.90
19680;DHT22;9989;48.962;9.182;2022-12-18T02:48:33;-5.50;99.90
19680;DHT22;9989;48.962;9.182;2022-12-18T02:51:23;-5.50;99.90
19680;DHT22;9989;48.962;9.182;2022-12-18T02:53:58;-5.60;99.90
19680;DHT22;9989;48.962;9.182;2022-12-18T02:56:46;-5.60;99.90
19680;DHT22;9989;48.962;9.182;2022-12-18T02:59:17;-5.60;99.90
19680;DHT22;9989;48.962;9.182;2022-12-18T03:04:42;-5.60;99.90
19680;DHT22;9989;48.962;9.182;2022-12-18T03:07:30;-5.60;99.90
19680;DHT22;9989;48.962;9.182;2022-12-18T03:09:59;-5.60;99.90
19680;DHT22;9989;48.962;9.182;2022-12-18T03:12:35;-5.60;99.90
19680;DHT22;9989;48.962;9.182;2022-12-18T03:15:22;-5.50;99.90
19680;DHT22;9989;48.962;9.182;2022-12-18T03:18:13;-5.50;99.90
19680;DHT22;9989;48.962;9.182;2022-12-18T03:20:43;-5.50;99.90
19680;DHT22;9989;48.962;9.182;2022-12-18T03:23:13;-5.60;99.90
19680;DHT22;9989;48.962;9.182;2022-12-18T03:25:44;-5.70;99.90
19680;DHT22;9989;48.962;9.182;2022-12-18T03:28:16;-5.70;99.90
19680;DHT22;9989;48.962;9.182;2022-12-18T03:30:43;-5.70;99.90
19680;DHT22;9989;48.962;9.182;2022-12-18T03:33:12;-5.70;99.90
19680;DHT22;9989;48.962;9.182;2022-12-18T03:35:42;-5.60;99.90
19680;DHT22;9989;48.962;9.182;2022-12-18T03:38:08;-5.60;99.90
19680;DHT22;9989;48.962;9.182;2022-12-18T03:41:04;-5.60;99.90
19680;DHT22;9989;48.962;9.182;2022-12-18T03:43:34;-5.60;99.90
19680;DHT22;9989;48.962;9.182;2022-12-18T03:46:08;-5.60;99.90
19680;DHT22;9989;48.962;9.182;2022-12-18T03:48:55;-5.60;99.90
19680;DHT22;9989;48.962;9.182;2022-12-18T03:51:28;-5.60;99.90
19680;DHT22;9989;48.962;9.182;2022-12-18T03:54:00;-5.60;99.90
19680;DHT22;9989;48.962;9.182;2022-12-18T03:56:29;-5.60;99.90
19680;DHT22;9989;48.962;9.182;2022-12-18T03:58:56;-5.60;99.90
19680;DHT22;9989;48.962;9.182;2022-12-18T04:01:30;-5.60;99.90
19680;DHT22;9989;48.962;9.182;2022-12-18T04:03:58;-5.70;99.90
19680;DHT22;9989;48.962;9.182;2022-12-18T04:06:25;-5.70;99.90
19680;DHT22;9989;48.962;9.182;2022-12-18T04:08:51;-5.70;99.90
19680;DHT22;9989;48.962;9.182;2022-12-18T04:11:20;-5.80;99.90
19680;DHT22;9989;48.962;9.182;2022-12-18T04:13:45;-5.80;99.90
19680;DHT22;9989;48.962;9.182;2022-12-18T04:16:11;-5.80;99.90
19680;DHT22;9989;48.962;9.182;2022-12-18T04:18:37;-5.80;99.90
19680;DHT22;9989;48.962;9.182;2022-12-18T04:21:02;-5.80;99.90
19680;DHT22;9989;48.962;9.182;2022-12-18T04:23:28;-5.80;99.90
19680;DHT22;9989;48.962;9.182;2022-12-18T04:25:54;-5.80;99.90
19680;DHT22;9989;48.962;9.182;2022-12-18T04:28:20;-5.80;99.90
19680;DHT22;9989;48.962;9.182;2022-12-18T04:30:48;-5.80;99.90
19680;DHT22;9989;48.962;9.182;2022-12-18T04:33:17;-5.80;99.90
19680;DHT22;9989;48.962;9.182;2022-12-18T04:35:43;-5.70;99.90
19680;DHT22;9989;48.962;9.182;2022-12-18T04:38:09;-5.70;99.90
19680;DHT22;9989;48.962;9.182;2022-12-18T04:40:36;-5.70;99.90
19680;DHT22;9989;48.962;9.182;2022-12-18T04:43:02;-5.70;99.90
19680;DHT22;9989;48.962;9.182;2022-12-18T04:45:30;-5.70;99.90
19680;DHT22;9989;48.962;9.182;2022-12-18T04:47:57;-5.70;99.90
19680;DHT22;9989;48.962;9.182;2022-12-18T04:50:23;-5.70;99.90
19680;DHT22;9989;48.962;9.182;2022-12-18T04:52:49;-5.80;99.90
19680;DHT22;9989;48.962;9.182;2022-12-18T04:55:15;-5.80;99.90
19680;DHT22;9989;48.962;9.182;2022-12-18T04:57:40;-5.80;99.90
19680;DHT22;9989;48.962;9.182;2022-12-18T05:00:06;-5.80;99.90
19680;DHT22;9989;48.962;9.182;2022-12-18T05:02:32;-5.90;99.90
19680;DHT22;9989;48.962;9.182;2022-12-18T05:04:58;-5.90;99.90
19680;DHT22;9989;48.962;9.182;2022-12-18T05:07:23;-5.90;99.90
19680;DHT22;9989;48.962;9.182;2022-12-18T05:09:49;-6.00;99.90
19680;DHT22;9989;48.962;9.182;2022-12-18T05:12:15;-6.00;99.90
19680;DHT22;9989;48.962;9.182;2022-12-18T05:14:40;-6.00;99.90
19680;DHT22;9989;48.962;9.182;2022-12-18T05:17:06;-6.00;99.90
19680;DHT22;9989;48.962;9.182;2022-12-18T05:19:31;-6.00;99.90
19680;DHT22;9989;48.962;9.182;2022-12-18T05:21:57;-6.00;99.90
19680;DHT22;9989;48.962;9.182;2022-12-18T05:24:23;-6.00;99.90
19680;DHT22;9989;48.962;9.182;2022-12-18T05:26:49;-6.00;99.90
19680;DHT22;9989;48.962;9.182;2022-12-18T05:29:14;-6.00;99.90
19680;DHT22;9989;48.962;9.182;2022-12-18T05:31:40;-5.90;99.90
19680;DHT22;9989;48.962;9.182;2022-12-18T05:34:05;-5.90;99.90
19680;DHT22;9989;48.962;9.182;2022-12-18T05:36:31;-6.00;99.90
19680;DHT22;9989;48.962;9.182;2022-12-18T05:38:57;-5.90;99.90
19680;DHT22;9989;48.962;9.182;2022-12-18T05:41:22;-6.00;99.90
19680;DHT22;9989;48.962;9.182;2022-12-18T05:43:48;-6.00;99.90
19680;DHT22;9989;48.962;9.182;2022-12-18T05:46:16;-6.10;99.90
19680;DHT22;9989;48.962;9.182;2022-12-18T05:48:43;-6.10;99.90
19680;DHT22;9989;48.962;9.182;2022-12-18T05:51:11;-6.10;99.90
19680;DHT22;9989;48.962;9.182;2022-12-18T05:53:38;-6.10;99.90
19680;DHT22;9989;48.962;9.182;2022-12-18T05:56:06;-6.00;99.90
19680;DHT22;9989;48.962;9.182;2022-12-18T05:58:32;-6.00;99.90
19680;DHT22;9989;48.962;9.182;2022-12-18T06:01:06;-6.00;99.90
19680;DHT22;9989;48.962;9.182;2022-12-18T06:03:32;-6.10;99.90
19680;DHT22;9989;48.962;9.182;2022-12-18T06:05:57;-6.10;99.90
19680;DHT22;9989;48.962;9.182;2022-12-18T06:08:23;-6.00;99.90
19680;DHT22;9989;48.962;9.182;2022-12-18T06:10:52;-6.00;99.90
19680;DHT22;9989;48.962;9.182;2022-12-18T06:13:19;-5.90;99.90
19680;DHT22;9989;48.962;9.182;2022-12-18T06:15:45;-5.80;99.90
19680;DHT22;9989;48.962;9.182;2022-12-18T06:18:10;-5.80;99.90
19680;DHT22;9989;48.962;9.182;2022-12-18T06:20:36;-5.80;99.90
19680;DHT22;9989;48.962;9.182;2022-12-18T06:23:02;-5.80;99.90
19680;DHT22;9989;48.962;9.182;2022-12-18T06:25:28;-5.80;99.90
19680;DHT22;9989;48.962;9.182;2022-12-18T06:27:54;-5.70;99.90
19680;DHT22;9989;48.962;9.182;2022-12-18T06:30:20;-5.80;99.90
19680;DHT22;9989;48.962;9.182;2022-12-18T06:32:45;-5.80;99.90
19680;DHT22;9989;48.962;9.182;2022-12-18T06:35:13;-5.80;99.90
19680;DHT22;9989;48.962;9.182;2022-12-18T06:37:38;-5.80;99.90
19680;DHT22;9989;48.962;9.182;2022-12-18T06:40:04;-5.90;99.90
19680;DHT22;9989;48.962;9.182;2022-12-18T06:42:30;-5.90;99.90
19680;DHT22;9989;48.962;9.182;2022-12-18T06:44:56;-6.00;99.90
19680;DHT22;9989;48.962;9.182;2022-12-18T06:47:21;-6.00;99.90
19680;DHT22;9989;48.962;9.182;2022-12-18T06:49:47;-6.00;99.90
19680;DHT22;9989;48.962;9.182;2022-12-18T06:52:12;-6.10;99.90
19680;DHT22;9989;48.962;9.182;2022-12-18T06:54:41;-6.10;99.90
19680;DHT22;9989;48.962;9.182;2022-12-18T06:57:07;-6.10;99.90
19680;DHT22;9989;48.962;9.182;2022-12-18T06:59:33;-6.10;99.90
19680;DHT22;9989;48.962;9.182;2022-12-18T07:01:58;-6.10;99.90
19680;DHT22;9989;48.962;9.182;2022-12-18T07:04:30;-6.10;99.90
19680;DHT22;9989;48.962;9.182;2022-12-18T07:06:56;-6.20;99.90
19680;DHT22;9989;48.962;9.182;2022-12-18T07:09:23;-6.20;99.90
19680;DHT22;9989;48.962;9.182;2022-12-18T07:11:48;-6.20;99.90
19680;DHT22;9989;48.962;9.182;2022-12-18T07:14:14;-6.10;99.90
19680;DHT22;9989;48.962;9.182;2022-12-18T07:16:39;-6.10;99.90
19680;DHT22;9989;48.962;9.182;2022-12-18T07:19:06;-5.90;99.90
19680;DHT22;9989;48.962;9.182;2022-12-18T07:21:31;-5.80;99.90
19680;DHT22;9989;48.962;9.182;2022-12-18T07:23:57;-5.80;99.90
19680;DHT22;9989;48.962;9.182;2022-12-18T07:26:23;-5.80;99.90
19680;DHT22;9989;48.962;9.182;2022-12-18T07:28:49;-5.70;99.90
19680;DHT22;9989;48.962;9.182;2022-12-18T07:31:20;-5.50;99.90
19680;DHT22;9989;48.962;9.182;2022-12-18T07:33:47;-5.30;99.90
19680;DHT22;9989;48.962;9.182;2022-12-18T07:36:13;-5.00;99.90
19680;DHT22;9989;48.962;9.182;2022-12-18T07:38:39;-4.80;99.90
19680;DHT22;9989;48.962;9.182;2022-12-18T07:41:10;-4.50;99.90
19680;DHT22;9989;48.962;9.182;2022-12-18T07:43:36;-4.30;99.90
19680;DHT22;9989;48.962;9.182;2022-12-18T07:46:02;-3.90;99.90
19680;DHT22;9989;48.962;9.182;2022-12-18T07:48:28;-3.60;99.90
19680;DHT22;9989;48.962;9.182;2022-12-18T07:50:58;-3.20;99.90
19680;DHT22;9989;48.962;9.182;2022-12-18T07:53:24;-2.80;99.90
19680;DHT22;9989;48.962;9.182;2022-12-18T07:55:57;-2.40;99.90
19680;DHT22;9989;48.962;9.182;2022-12-18T07:58:24;-2.00;99.90
19680;DHT22;9989;48.962;9.182;2022-12-18T08:00:49;-1.50;99.90
19680;DHT22;9989;48.962;9.182;2022-12-18T08:03:15;-1.10;99.90
19680;DHT22;9989;48.962;9.182;2022-12-18T08:05:41;-0.50;99.90
19680;DHT22;9989;48.962;9.182;2022-12-18T08:08:06;0.00;99.90
19680;DHT22;9989;48.962;9.182;2022-12-18T08:10:32;0.30;99.90
19680;DHT22;9989;48.962;9.182;2022-12-18T08:12:57;0.80;99.90
19680;DHT22;9989;48.962;9.182;2022-12-18T08:15:23;1.30;99.90
19680;DHT22;9989;48.962;9.182;2022-12-18T08:17:48;2.00;99.90
19680;DHT22;9989;48.962;9.182;2022-12-18T08:20:14;2.60;99.10
19680;DHT22;9989;48.962;9.182;2022-12-18T08:22:41;3.10;96.50
19680;DHT22;9989;48.962;9.182;2022-12-18T08:25:07;3.60;94.40
19680;DHT22;9989;48.962;9.182;2022-12-18T08:27:33;4.10;92.40
19680;DHT22;9989;48.962;9.182;2022-12-18T08:29:58;4.60;90.80
19680;DHT22;9989;48.962;9.182;2022-12-18T08:32:25;5.10;87.50
19680;DHT22;9989;48.962;9.182;2022-12-18T08:34:51;5.60;84.40
19680;DHT22;9989;48.962;9.182;2022-12-18T08:37:16;6.10;80.00
19680;DHT22;9989;48.962;9.182;2022-12-18T08:39:42;6.60;77.00
19680;DHT22;9989;48.962;9.182;2022-12-18T08:42:07;7.00;74.60
19680;DHT22;9989;48.962;9.182;2022-12-18T08:44:52;7.40;71.00
19680;DHT22;9989;48.962;9.182;2022-12-18T08:47:17;7.90;68.00
19680;DHT22;9989;48.962;9.182;2022-12-18T08:49:43;8.30;66.70
19680;DHT22;9989;48.962;9.182;2022-12-18T08:52:08;8.60;65.20
19680;DHT22;9989;48.962;9.182;2022-12-18T08:54:34;9.10;63.20
19680;DHT22;9989;48.962;9.182;2022-12-18T08:56:59;9.50;61.50
19680;DHT22;9989;48.962;9.182;2022-12-18T08:59:25;9.90;59.70
19680;DHT22;9989;48.962;9.182;2022-12-18T09:01:53;10.40;58.20
19680;DHT22;9989;48.962;9.182;2022-12-18T09:04:19;10.70;57.20
19680;DHT22;9989;48.962;9.182;2022-12-18T09:06:44;11.20;55.90
19680;DHT22;9989;48.962;9.182;2022-12-18T09:09:10;11.50;54.40
19680;DHT22;9989;48.962;9.182;2022-12-18T09:11:36;11.70;52.80
19680;DHT22;9989;48.962;9.182;2022-12-18T09:14:02;11.50;52.00
19680;DHT22;9989;48.962;9.182;2022-12-18T09:16:29;10.60;51.80
19680;DHT22;9989;48.962;9.182;2022-12-18T09:18:55;9.30;53.20
19680;DHT22;9989;48.962;9.182;2022-12-18T09:21:26;7.80;55.30
19680;DHT22;9989;48.962;9.182;2022-12-18T09:23:53;6.60;57.90
19680;DHT22;9989;48.962;9.182;2022-12-18T09:26:20;5.60;60.10
19680;DHT22;9989;48.962;9.182;2022-12-18T09:28:46;4.80;62.90
19680;DHT22;9989;48.962;9.182;2022-12-18T09:31:12;4.20;65.30
19680;DHT22;9989;48.962;9.182;2022-12-18T09:33:42;3.70;67.80
19680;DHT22;9989;48.962;9.182;2022-12-18T09:36:09;3.70;69.60
19680;DHT22;9989;48.962;9.182;2022-12-18T09:38:36;4.00;70.80
19680;DHT22;9989;48.962;9.182;2022-12-18T09:44:00;5.70;69.30
19680;DHT22;9989;48.962;9.182;2022-12-18T09:46:31;6.60;65.80
19680;DHT22;9989;48.962;9.182;2022-12-18T09:49:04;7.40;63.80
19680;DHT22;9989;48.962;9.182;2022-12-18T09:54:38;8.50;60.40
19680;DHT22;9989;48.962;9.182;2022-12-18T09:57:14;8.90;59.50
19680;DHT22;9989;48.962;9.182;2022-12-18T09:59:42;8.90;58.30
19680;DHT22;9989;48.962;9.182;2022-12-18T10:02:21;9.10;58.90
19680;DHT22;9989;48.962;9.182;2022-12-18T10:05:12;9.60;58.50
19680;DHT22;9989;48.962;9.182;2022-12-18T10:08:10;10.50;57.30
19680;DHT22;9989;48.962;9.182;2022-12-18T10:16:26;12.80;53.10
19680;DHT22;9989;48.962;9.182;2022-12-18T10:21:32;14.00;50.70
19680;DHT22;9989;48.962;9.182;2022-12-18T10:24:37;14.50;49.20
19680;DHT22;9989;48.962;9.182;2022-12-18T10:27:17;14.90;48.50
19680;DHT22;9989;48.962;9.182;2022-12-18T10:29:44;15.30;48.00
19680;DHT22;9989;48.962;9.182;2022-12-18T10:32:21;15.50;47.30
19680;DHT22;9989;48.962;9.182;2022-12-18T10:34:49;16.00;46.60
19680;DHT22;9989;48.962;9.182;2022-12-18T10:37:22;16.40;45.80
19680;DHT22;9989;48.962;9.182;2022-12-18T10:40:08;16.70;44.80
19680;DHT22;9989;48.962;9.182;2022-12-18T10:42:34;17.20;43.60
19680;DHT22;9989;48.962;9.182;2022-12-18T10:45:15;17.40;42.70
19680;DHT22;9989;48.962;9.182;2022-12-18T10:47:45;17.40;42.50
19680;DHT22;9989;48.962;9.182;2022-12-18T10:50:31;17.20;41.80
19680;DHT22;9989;48.962;9.182;2022-12-18T10:52:59;16.90;42.20
19680;DHT22;9989;48.962;9.182;2022-12-18T10:55:37;16.50;42.70
19680;DHT22;9989;48.962;9.182;2022-12-18T10:58:23;16.20;42.80
19680;DHT22;9989;48.962;9.182;2022-12-18T11:03:33;15.80;44.20
19680;DHT22;9989;48.962;9.182;2022-12-18T11:08:32;16.00;44.30
19680;DHT22;9989;48.962;9.182;2022-12-18T11:10:58;15.60;43.70
19680;DHT22;9989;48.962;9.182;2022-12-18T11:13:26;15.20;44.80
19680;DHT22;9989;48.962;9.182;2022-12-18T11:15:52;15.20;45.20
19680;DHT22;9989;48.962;9.182;2022-12-18T11:18:33;15.10;45.10
19680;DHT22;9989;48.962;9.182;2022-12-18T11:21:08;14.90;45.30
19680;DHT22;9989;48.962;9.182;2022-12-18T11:23:35;14.80;45.80
19680;DHT22;9989;48.962;9.182;2022-12-18T11:26:04;14.90;46.10
19680;DHT22;9989;48.962;9.182;2022-12-18T11:28:52;15.00;45.90
19680;DHT22;9989;48.962;9.182;2022-12-18T11:36:19;17.00;44.80
19680;DHT22;9989;48.962;9.182;2022-12-18T11:38:48;17.70;43.30
19680;DHT22;9989;48.962;9.182;2022-12-18T11:41:47;18.50;42.60
19680;DHT22;9989;48.962;9.182;2022-12-18T11:44:51;18.90;40.80
19680;DHT22;9989;48.962;9.182;2022-12-18T11:50:00;18.70;41.20
19680;DHT22;9989;48.962;9.182;2022-12-18T11:52:38;18.50;40.80
19680;DHT22;9989;48.962;9.182;2022-12-18T12:00:30;18.80;40.80
19680;DHT22;9989;48.962;9.182;2022-12-18T12:03:20;19.10;40.80
19680;DHT22;9989;48.962;9.182;2022-12-18T12:08:44;19.20;40.20
19680;DHT22;9989;48.962;9.182;2022-12-18T12:11:23;19.10;40.10
19680;DHT22;9989;48.962;9.182;2022-12-18T12:32:22;16.70;43.80
19680;DHT22;9989;48.962;9.182;2022-12-18T12:40:36;15.40;45.40
19680;DHT22;9989;48.962;9.182;2022-12-18T12:43:33;14.80;46.40
19680;DHT22;9989;48.962;9.182;2022-12-18T12:46:06;14.50;47.20
19680;DHT22;9989;48.962;9.182;2022-12-18T12:48:37;14.00;48.00
19680;DHT22;9989;48.962;9.182;2022-12-18T12:53:42;13.50;49.60
19680;DHT22;9989;48.962;9.182;2022-12-18T12:56:10;13.40;49.80
19680;DHT22;9989;48.962;9.182;2022-12-18T12:58:50;13.20;50.30
19680;DHT22;9989;48.962;9.182;2022-12-18T13:04:03;12.80;51.20
19680;DHT22;9989;48.962;9.182;2022-12-18T13:09:12;12.40;51.80
19680;DHT22;9989;48.962;9.182;2022-12-18T13:11:43;12.20;52.20
19680;DHT22;9989;48.962;9.182;2022-12-18T13:14:31;12.10;52.60
19680;DHT22;9989;48.962;9.182;2022-12-18T13:19:51;11.40;53.60
19680;DHT22;9989;48.962;9.182;2022-12-18T13:22:34;11.20;54.30
19680;DHT22;9989;48.962;9.182;2022-12-18T13:25:00;10.80;55.10
19680;DHT22;9989;48.962;9.182;2022-12-18T13:27:47;10.50;55.80
19680;DHT22;9989;48.962;9.182;2022-12-18T13:43:41;10.10;57.60
19680;DHT22;9989;48.962;9.182;2022-12-18T13:46:21;9.90;57.90
19680;DHT22;9989;48.962;9.182;2022-12-18T13:49:01;9.60;58.30
19680;DHT22;9989;48.962;9.182;2022-12-18T13:51:31;9.30;59.60
19680;DHT22;9989;48.962;9.182;2022-12-18T13:54:02;9.10;59.80
19680;DHT22;9989;48.962;9.182;2022-12-18T13:56:32;8.90;60.30
19680;DHT22;9989;48.962;9.182;2022-12-18T13:59:23;8.80;60.80
19680;DHT22;9989;48.962;9.182;2022-12-18T14:06:50;8.30;62.90
19680;DHT22;9989;48.962;9.182;2022-12-18T14:09:21;8.30;63.20
19680;DHT22;9989;48.962;9.182;2022-12-18T14:11:49;8.20;63.50
19680;DHT22;9989;48.962;9.182;2022-12-18T14:14:17;8.10;63.80
19680;DHT22;9989;48.962;9.182;2022-12-18T14:16:43;8.00;64.20
19680;DHT22;9989;48.962;9.182;2022-12-18T14:19:17;7.80;64.60
19680;DHT22;9989;48.962;9.182;2022-12-18T14:21:47;7.50;65.30
19680;DHT22;9989;48.962;9.182;2022-12-18T14:24:19;7.20;66.20
19680;DHT22;9989;48.962;9.182;2022-12-18T14:26:49;6.80;67.10
19680;DHT22;9989;48.962;9.182;2022-12-18T14:29:28;6.50;68.10
19680;DHT22;9989;48.962;9.182;2022-12-18T14:32:29;6.20;69.50
19680;DHT22;9989;48.962;9.182;2022-12-18T14:34:55;5.80;70.60
19680;DHT22;9989;48.962;9.182;2022-12-18T14:37:25;5.60;71.80
19680;DHT22;9989;48.962;9.182;2022-12-18T14:39:58;5.40;72.70
19680;DHT22;9989;48.962;9.182;2022-12-18T14:42:25;5.10;73.90
19680;DHT22;9989;48.962;9.182;2022-12-18T14:47:58;4.50;75.60
19680;DHT22;9989;48.962;9.182;2022-12-18T14:50:24;4.30;77.00
19680;DHT22;9989;48.962;9.182;2022-12-18T14:52:50;4.10;77.90
19680;DHT22;9989;48.962;9.182;2022-12-18T14:55:20;3.90;79.00
19680;DHT22;9989;48.962;9.182;2022-12-18T14:57:50;3.60;79.70
19680;DHT22;9989;48.962;9.182;2022-12-18T15:00:19;3.40;80.70
19680;DHT22;9989;48.962;9.182;2022-12-18T15:02:55;3.30;81.70
19680;DHT22;9989;48.962;9.182;2022-12-18T15:05:29;3.10;82.50
19680;DHT22;9989;48.962;9.182;2022-12-18T15:08:00;2.90;83.50
19680;DHT22;9989;48.962;9.182;2022-12-18T15:10:28;2.70;84.20
19680;DHT22;9989;48.962;9.182;2022-12-18T15:20:41;2.20;87.90
19680;DHT22;9989;48.962;9.182;2022-12-18T15:23:36;2.10;88.80
19680;DHT22;9989;48.962;9.182;2022-12-18T15:26:08;1.90;89.70
19680;DHT22;9989;48.962;9.182;2022-12-18T15:28:39;1.80;90.30
19680;DHT22;9989;48.962;9.182;2022-12-18T15:36:16;1.50;91.50
19680;DHT22;9989;48.962;9.182;2022-12-18T15:38:49;1.40;91.70
19680;DHT22;9989;48.962;9.182;2022-12-18T15:41:17;1.30;92.10
19680;DHT22;9989;48.962;9.182;2022-12-18T15:43:44;1.20;92.60
19680;DHT22;9989;48.962;9.182;2022-12-18T15:46:15;1.20;93.00
19680;DHT22;9989;48.962;9.182;2022-12-18T15:48:51;1.10;93.90
19680;DHT22;9989;48.962;9.182;2022-12-18T15:51:20;1.00;95.40
19680;DHT22;9989;48.962;9.182;2022-12-18T15:53:52;0.90;96.50
19680;DHT22;9989;48.962;9.182;2022-12-18T15:56:18;0.90;97.50
19680;DHT22;9989;48.962;9.182;2022-12-18T15:59:04;0.90;98.90
19680;DHT22;9989;48.962;9.182;2022-12-18T16:01:34;0.80;99.90
19680;DHT22;9989;48.962;9.182;2022-12-18T16:04:00;0.80;99.90
19680;DHT22;9989;48.962;9.182;2022-12-18T16:06:26;0.80;99.90
19680;DHT22;9989;48.962;9.182;2022-12-18T16:08:51;0.70;99.90
19680;DHT22;9989;48.962;9.182;2022-12-18T16:11:26;0.60;99.90
19680;DHT22;9989;48.962;9.182;2022-12-18T16:14:17;0.60;99.90
19680;DHT22;9989;48.962;9.182;2022-12-18T16:16:48;0.60;99.90
19680;DHT22;9989;48.962;9.182;2022-12-18T16:19:14;0.50;99.90
19680;DHT22;9989;48.962;9.182;2022-12-18T16:21:39;0.50;99.90
19680;DHT22;9989;48.962;9.182;2022-12-18T16:24:05;0.50;99.90
19680;DHT22;9989;48.962;9.182;2022-12-18T16:26:31;0.50;99.90
19680;DHT22;9989;48.962;9.182;2022-12-18T16:28:56;0.40;99.90
19680;DHT22;9989;48.962;9.182;2022-12-18T16:31:22;0.40;99.90
19680;DHT22;9989;48.962;9.182;2022-12-18T16:33:48;0.40;99.90
19680;DHT22;9989;48.962;9.182;2022-12-18T16:36:13;0.40;99.90
19680;DHT22;9989;48.962;9.182;2022-12-18T16:38:39;0.40;99.90
19680;DHT22;9989;48.962;9.182;2022-12-18T16:41:22;0.40;99.90
19680;DHT22;9989;48.962;9.182;2022-12-18T16:43:57;0.40;99.90
19680;DHT22;9989;48.962;9.182;2022-12-18T16:46:23;0.40;99.90
19680;DHT22;9989;48.962;9.182;2022-12-18T16:48:48;0.40;99.90
19680;DHT22;9989;48.962;9.182;2022-12-18T16:51:14;0.40;99.90
19680;DHT22;9989;48.962;9.182;2022-12-18T16:53:40;0.40;99.90
19680;DHT22;9989;48.962;9.182;2022-12-18T16:56:06;0.40;99.90
19680;DHT22;9989;48.962;9.182;2022-12-18T16:58:31;0.50;99.90
19680;DHT22;9989;48.962;9.182;2022-12-18T17:00:57;0.40;99.90
19680;DHT22;9989;48.962;9.182;2022-12-18T17:03:23;0.50;99.90
19680;DHT22;9989;48.962;9.182;2022-12-18T17:05:48;0.50;99.90
19680;DHT22;9989;48.962;9.182;2022-12-18T17:08:14;0.50;99.90
19680;DHT22;9989;48.962;9.182;2022-12-18T17:10:39;0.50;99.90
19680;DHT22;9989;48.962;9.182;2022-12-18T17:13:05;0.50;99.90
19680;DHT22;9989;48.962;9.182;2022-12-18T17:15:34;0.50;99.90
19680;DHT22;9989;48.962;9.182;2022-12-18T17:18:00;0.60;99.90
19680;DHT22;9989;48.962;9.182;2022-12-18T17:20:30;0.50;99.90
19680;DHT22;9989;48.962;9.182;2022-12-18T17:22:58;0.50;99.90
19680;DHT22;9989;48.962;9.182;2022-12-18T17:25:24;0.50;99.90
19680;DHT22;9989;48.962;9.182;2022-12-18T17:27:50;0.50;99.90
19680;DHT22;9989;48.962;9.182;2022-12-18T17:30:16;0.50;99.90
19680;DHT22;9989;48.962;9.182;2022-12-18T17:32:42;0.50;99.90
19680;DHT22;9989;48.962;9.182;2022-12-18T17:35:08;0.50;99.90
19680;DHT22;9989;48.962;9.182;2022-12-18T17:37:34;0.50;99.90
19680;DHT22;9989;48.962;9.182;2022-12-18T17:39:59;0.50;99.90
19680;DHT22;9989;48.962;9.182;2022-12-18T17:42:25;0.50;99.90
19680;DHT22;9989;48.962;9.182;2022-12-18T17:44:51;0.50;99.90
19680;DHT22;9989;48.962;9.182;2022-12-18T17:47:17;0.50;99.90
19680;DHT22;9989;48.962;9.182;2022-12-18T17:49:42;0.50;99.90
19680;DHT22;9989;48.962;9.182;2022-12-18T17:52:08;0.40;99.90
19680;DHT22;9989;48.962;9.182;2022-12-18T17:54:34;0.40;99.90
19680;DHT22;9989;48.962;9.182;2022-12-18T17:57:04;0.40;99.90
19680;DHT22;9989;48.962;9.182;2022-12-18T17:59:29;0.40;99.90
19680;DHT22;9989;48.962;9.182;2022-12-18T18:01:55;0.40;99.90
19680;DHT22;9989;48.962;9.182;2022-12-18T18:04:21;0.40;99.90
19680;DHT22;9989;48.962;9.182;2022-12-18T18:06:46;0.40;99.90
19680;DHT22;9989;48.962;9.182;2022-12-18T18:09:12;0.40;99.90
19680;DHT22;9989;48.962;9.182;2022-12-18T18:11:38;0.30;99.90
19680;DHT22;9989;48.962;9.182;2022-12-18T18:14:22;0.30;99.90